createdAt,value
2019-03-10T00:00:50.924Z,5.40
2019-03-10T00:03:20.314Z,5.80
2019-03-10T00:05:49.741Z,5.93
2019-03-10T00:08:18.939Z,5.07
2019-03-10T00:10:48.254Z,5.77
2019-03-10T00:13:17.794Z,6.00
2019-03-10T00:15:47.340Z,7.10
2019-03-10T00:18:16.856Z,5.90
2019-03-10T00:20:46.141Z,6.33
2019-03-10T00:23:15.466Z,6.37
2019-03-10T00:25:44.769Z,7.23
2019-03-10T00:28:14.113Z,6.33
2019-03-10T00:30:43.358Z,6.10
2019-03-10T00:33:12.579Z,5.47
2019-03-10T00:35:41.822Z,7.13
2019-03-10T00:38:11.090Z,7.33
2019-03-10T00:41:14.684Z,6.20
2019-03-10T00:44:17.990Z,6.93
2019-03-10T00:47:06.334Z,6.27
2019-03-10T00:50:28.560Z,6.90
2019-03-10T00:53:01.195Z,7.87
2019-03-10T00:55:30.766Z,7.23
2019-03-10T00:58:00.613Z,7.77
2019-03-10T01:00:29.912Z,6.27
2019-03-10T01:02:59.665Z,7.80
2019-03-10T01:05:28.926Z,6.53
2019-03-10T01:07:58.492Z,7.53
2019-03-10T01:10:28.008Z,8.03
2019-03-10T01:12:57.589Z,8.03
2019-03-10T01:15:27.313Z,7.63
2019-03-10T01:17:58.380Z,7.37
2019-03-10T01:20:28.409Z,6.93
2019-03-10T01:22:57.645Z,7.83
2019-03-10T01:25:26.823Z,7.40
2019-03-10T01:27:56.475Z,8.20
2019-03-10T01:30:25.849Z,7.03
2019-03-10T01:33:16.353Z,7.30
2019-03-10T01:35:45.982Z,6.60
2019-03-10T01:38:15.173Z,7.33
2019-03-10T01:40:44.853Z,6.67
2019-03-10T01:43:14.519Z,6.77
2019-03-10T01:45:43.861Z,6.97
2019-03-10T01:48:13.185Z,6.50
2019-03-10T01:50:42.584Z,6.87
2019-03-10T01:53:12.232Z,6.87
2019-03-10T01:55:41.440Z,5.47
2019-03-10T01:58:10.843Z,7.07
2019-03-10T02:00:40.091Z,7.00
2019-03-10T02:03:09.281Z,6.70
2019-03-10T02:05:38.668Z,6.37
2019-03-10T02:08:08.056Z,4.97
2019-03-10T02:10:37.372Z,4.90
2019-03-10T02:13:06.964Z,3.63
2019-03-10T02:15:36.627Z,3.73
2019-03-10T02:18:06.466Z,3.03
2019-03-10T02:20:36.058Z,3.27
2019-03-10T02:23:05.757Z,3.90
2019-03-10T02:25:35.020Z,4.13
2019-03-10T02:28:04.308Z,3.80
2019-03-10T02:30:33.948Z,4.67
2019-03-10T02:33:03.712Z,4.53
2019-03-10T02:35:33.129Z,4.40
2019-03-10T02:38:02.406Z,5.27
2019-03-10T02:40:31.755Z,5.97
2019-03-10T02:43:01.486Z,5.77
2019-03-10T02:45:30.751Z,5.57
2019-03-10T02:48:00.332Z,5.37
2019-03-10T02:50:30.036Z,6.00
2019-03-10T02:52:59.728Z,6.93
2019-03-10T02:55:29.444Z,6.30
2019-03-10T02:57:58.817Z,5.60
2019-03-10T03:00:28.207Z,5.90
2019-03-10T03:02:57.542Z,6.27
2019-03-10T03:05:26.759Z,5.83
2019-03-10T03:07:56.013Z,6.00
2019-03-10T03:10:25.326Z,5.60
2019-03-10T03:12:54.668Z,6.00
2019-03-10T03:15:23.912Z,6.67
2019-03-10T03:17:53.430Z,6.13
2019-03-10T03:20:23.107Z,5.50
2019-03-10T03:22:52.719Z,6.77
2019-03-10T03:25:21.971Z,5.63
2019-03-10T03:27:51.276Z,7.03
2019-03-10T03:30:20.617Z,4.80
2019-03-10T03:32:49.858Z,5.33
2019-03-10T03:35:57.739Z,5.60
2019-03-10T03:38:31.326Z,5.23
2019-03-10T03:41:02.971Z,5.30
2019-03-10T03:43:32.684Z,4.90
2019-03-10T03:46:02.059Z,5.50
2019-03-10T03:48:31.338Z,5.13
2019-03-10T03:51:00.668Z,4.60
2019-03-10T03:53:31.073Z,4.97
2019-03-10T03:56:00.714Z,5.43
2019-03-10T03:58:30.311Z,5.17
2019-03-10T04:01:05.572Z,6.03
2019-03-10T04:03:34.837Z,5.50
2019-03-10T04:06:04.116Z,5.20
2019-03-10T04:08:33.706Z,5.50
2019-03-10T04:11:03.053Z,4.57
2019-03-10T04:13:32.328Z,5.03
2019-03-10T04:16:01.583Z,5.33
2019-03-10T04:18:31.244Z,4.87
2019-03-10T04:21:00.907Z,5.30
2019-03-10T04:23:30.910Z,5.43
2019-03-10T04:26:00.555Z,4.63
2019-03-10T04:28:29.833Z,4.77
2019-03-10T04:30:59.134Z,5.03
2019-03-10T04:33:28.478Z,4.43
2019-03-10T04:35:57.750Z,5.07
2019-03-10T04:38:27.780Z,5.13
2019-03-10T04:40:57.391Z,4.83
2019-03-10T04:43:27.005Z,5.10
2019-03-10T04:45:56.478Z,4.30
2019-03-10T04:48:25.831Z,4.73
2019-03-10T04:50:55.108Z,4.60
2019-03-10T04:53:24.682Z,4.10
2019-03-10T04:56:17.289Z,4.30
2019-03-10T04:58:51.566Z,3.97
2019-03-10T05:01:21.414Z,3.50
2019-03-10T05:03:50.703Z,3.97
2019-03-10T05:06:20.411Z,3.43
2019-03-10T05:08:49.623Z,3.43
2019-03-10T05:11:18.881Z,3.83
2019-03-10T05:13:48.810Z,3.60
2019-03-10T05:16:18.064Z,3.67
2019-03-10T05:18:47.310Z,3.43
2019-03-10T05:21:16.644Z,4.00
2019-03-10T05:23:46.957Z,4.23
2019-03-10T05:26:17.519Z,4.13
2019-03-10T05:28:47.893Z,3.80
2019-03-10T05:31:17.324Z,3.80
2019-03-10T05:33:46.709Z,4.23
2019-03-10T05:36:16.084Z,4.37
2019-03-10T05:38:45.792Z,4.43
2019-03-10T05:41:15.171Z,3.83
2019-03-10T05:43:44.744Z,3.30
2019-03-10T05:46:14.311Z,4.37
2019-03-10T05:48:43.669Z,4.23
2019-03-10T05:51:12.903Z,4.17
2019-03-10T05:53:42.295Z,4.20
2019-03-10T05:56:11.564Z,4.63
2019-03-10T05:58:40.872Z,4.03
2019-03-10T06:01:10.216Z,4.17
2019-03-10T06:03:39.848Z,4.77
2019-03-10T06:06:09.571Z,5.13
2019-03-10T06:08:38.906Z,6.23
2019-03-10T06:11:08.199Z,5.40
2019-03-10T06:13:37.503Z,5.73
2019-03-10T06:16:06.836Z,5.40
2019-03-10T06:18:36.544Z,5.50
2019-03-10T06:21:05.918Z,5.13
2019-03-10T06:23:35.211Z,5.77
2019-03-10T06:26:04.924Z,5.73
2019-03-10T06:28:34.233Z,5.83
2019-03-10T06:31:03.821Z,5.03
2019-03-10T06:33:33.820Z,5.23
2019-03-10T06:36:03.129Z,5.03
2019-03-10T06:38:33.194Z,5.30
2019-03-10T06:41:02.745Z,4.90
2019-03-10T06:43:32.138Z,5.20
2019-03-10T06:46:01.485Z,5.10
2019-03-10T06:48:30.754Z,4.83
2019-03-10T06:51:00.007Z,5.57
2019-03-10T06:53:29.380Z,4.67
2019-03-10T06:55:59.018Z,4.87
2019-03-10T06:58:29.008Z,3.60
2019-03-10T07:00:58.200Z,2.60
2019-03-10T07:03:27.892Z,3.17
2019-03-10T07:05:59.005Z,2.43
2019-03-10T07:08:28.264Z,2.33
2019-03-10T07:10:57.970Z,1.73
2019-03-10T07:13:27.380Z,2.00
2019-03-10T07:15:56.684Z,1.73
2019-03-10T07:18:27.771Z,1.50
2019-03-10T07:20:58.647Z,1.50
2019-03-10T07:23:27.969Z,1.17
2019-03-10T07:26:06.939Z,1.30
2019-03-10T07:28:48.388Z,1.30
2019-03-10T07:31:43.268Z,1.50
2019-03-10T07:34:31.551Z,1.30
2019-03-10T07:37:16.731Z,1.30
2019-03-10T07:40:05.245Z,1.13
2019-03-10T07:43:00.246Z,1.23
2019-03-10T07:45:37.199Z,1.20
2019-03-10T07:48:44.371Z,1.40
2019-03-10T07:51:37.920Z,1.20
2019-03-10T07:54:35.204Z,1.60
2019-03-10T07:57:42.896Z,2.00
2019-03-10T08:00:49.707Z,1.63
2019-03-10T08:03:46.637Z,1.77
2019-03-10T08:06:24.691Z,1.90
2019-03-10T08:09:08.853Z,1.90
2019-03-10T08:12:06.216Z,1.60
2019-03-10T08:14:47.402Z,1.40
2019-03-10T08:17:28.163Z,1.80
2019-03-10T08:20:03.627Z,1.80
2019-03-10T08:22:47.805Z,1.63
2019-03-10T08:25:54.251Z,1.70
2019-03-10T08:29:01.103Z,2.10
2019-03-10T08:31:49.389Z,2.30
2019-03-10T08:34:51.767Z,2.53
2019-03-10T08:37:38.619Z,1.93
2019-03-10T08:40:41.002Z,2.40
2019-03-10T08:43:22.129Z,1.77
2019-03-10T08:46:09.341Z,1.70
2019-03-10T08:48:47.833Z,1.50
2019-03-10T08:51:24.017Z,1.30
2019-03-10T08:54:12.605Z,1.83
2019-03-10T08:57:07.113Z,1.70
2019-03-10T08:59:52.239Z,2.40
2019-03-10T09:02:58.893Z,2.60
2019-03-10T09:05:53.197Z,2.40
2019-03-10T09:08:31.974Z,2.97
2019-03-10T09:11:10.934Z,2.90
2019-03-10T09:13:54.311Z,2.83
2019-03-10T09:16:31.932Z,2.57
2019-03-10T09:19:38.023Z,2.70
2019-03-10T09:22:26.330Z,3.50
2019-03-10T09:25:15.168Z,2.90
2019-03-10T09:27:55.706Z,3.37
2019-03-10T09:30:48.369Z,4.30
2019-03-10T09:33:25.728Z,3.20
2019-03-10T09:36:14.218Z,2.93
2019-03-10T09:38:48.926Z,3.33
2019-03-10T09:41:35.263Z,2.60
2019-03-10T09:44:23.574Z,2.83
2019-03-10T09:47:12.008Z,4.10
2019-03-10T09:49:58.748Z,3.47
2019-03-10T09:53:01.851Z,3.47
2019-03-10T09:55:49.037Z,3.97
2019-03-10T09:58:23.097Z,2.87
2019-03-10T10:01:10.358Z,4.33
2019-03-10T10:03:46.779Z,3.83
2019-03-10T10:06:26.081Z,4.20
2019-03-10T10:09:12.965Z,3.73
2019-03-10T10:12:13.419Z,4.67
2019-03-10T10:14:58.845Z,5.47
2019-03-10T10:17:50.546Z,3.23
2019-03-10T10:20:26.962Z,3.20
2019-03-10T10:23:05.908Z,3.87
2019-03-10T10:25:56.724Z,4.93
2019-03-10T10:28:45.009Z,3.00
2019-03-10T10:31:35.428Z,4.07
2019-03-10T10:34:19.527Z,4.23
2019-03-10T10:37:08.566Z,3.43
2019-03-10T10:39:48.456Z,3.40
2019-03-10T10:42:39.760Z,3.90
2019-03-10T10:45:15.956Z,3.67
2019-03-10T10:48:07.424Z,3.83
2019-03-10T10:51:01.827Z,3.43
2019-03-10T10:53:44.991Z,3.27
2019-03-10T10:56:33.498Z,4.67
2019-03-10T10:59:34.120Z,3.93
2019-03-10T11:02:21.532Z,4.23
2019-03-10T11:05:22.004Z,4.47
2019-03-10T11:08:07.572Z,3.50
2019-03-10T11:10:54.457Z,3.90
2019-03-10T11:13:55.133Z,4.80
2019-03-10T11:16:30.657Z,3.93
2019-03-10T11:19:07.336Z,3.27
2019-03-10T11:21:59.116Z,3.20
2019-03-10T11:24:50.129Z,3.03
2019-03-10T11:27:38.761Z,4.23
2019-03-10T11:30:30.248Z,3.40
2019-03-10T11:33:08.460Z,4.43
2019-03-10T11:36:00.088Z,3.50
2019-03-10T11:39:00.702Z,5.10
2019-03-10T11:41:47.923Z,4.27
2019-03-10T11:44:38.744Z,3.13
2019-03-10T11:47:14.919Z,3.37
2019-03-10T11:50:28.179Z,3.93
2019-03-10T11:53:18.731Z,3.33
2019-03-10T11:56:15.412Z,3.90
2019-03-10T11:58:58.616Z,3.70
2019-03-10T12:01:45.827Z,4.63
2019-03-10T12:04:36.218Z,2.60
2019-03-10T12:07:18.468Z,4.20
2019-03-10T12:09:47.831Z,2.93
2019-03-10T12:12:17.147Z,3.47
2019-03-10T12:14:47.145Z,3.23
2019-03-10T12:17:16.595Z,2.80
2019-03-10T12:19:46.370Z,2.53
2019-03-10T12:22:15.728Z,2.07
2019-03-10T12:24:45.998Z,2.67
2019-03-10T12:27:16.519Z,2.77
2019-03-10T12:29:47.140Z,1.57
2019-03-10T12:32:19.017Z,2.20
2019-03-10T12:34:48.730Z,1.60
2019-03-10T12:37:18.331Z,2.20
2019-03-10T12:39:47.722Z,1.70
2019-03-10T12:42:17.104Z,1.20
2019-03-10T12:44:46.358Z,1.50
2019-03-10T12:47:15.642Z,1.50
2019-03-10T12:49:45.353Z,1.10
2019-03-10T12:52:14.686Z,1.33
2019-03-10T12:54:47.846Z,1.10
2019-03-10T12:57:19.298Z,1.53
2019-03-10T12:59:48.671Z,1.10
2019-03-10T13:02:18.251Z,1.27
2019-03-10T13:04:48.095Z,2.87
2019-03-10T13:07:20.060Z,1.30
2019-03-10T13:09:49.391Z,1.67
2019-03-10T13:12:18.785Z,1.13
2019-03-10T13:14:58.761Z,1.50
2019-03-10T13:17:26.273Z,1.17
2019-03-10T13:20:10.352Z,1.33
2019-03-10T13:22:40.144Z,1.70
2019-03-10T13:25:09.886Z,1.47
2019-03-10T13:27:39.585Z,1.40
2019-03-10T13:30:09.524Z,1.30
2019-03-10T13:32:39.371Z,1.10
2019-03-10T13:35:08.716Z,1.27
2019-03-10T13:37:38.342Z,1.30
2019-03-10T13:40:09.494Z,1.40
2019-03-10T13:42:40.898Z,1.20
2019-03-10T13:45:10.084Z,1.10
2019-03-10T13:47:39.723Z,1.30
2019-03-10T13:50:10.722Z,1.40
2019-03-10T13:52:43.093Z,1.20
2019-03-10T13:55:12.672Z,1.63
2019-03-10T13:57:42.051Z,1.43
2019-03-10T14:00:13.771Z,1.20
2019-03-10T14:02:43.095Z,1.20
2019-03-10T14:05:12.489Z,1.30
2019-03-10T14:07:41.842Z,1.10
2019-03-10T14:10:11.587Z,1.17
2019-03-10T14:12:41.640Z,1.50
2019-03-10T14:15:11.619Z,1.40
2019-03-10T14:17:41.255Z,0.90
2019-03-10T14:20:10.718Z,1.03
2019-03-10T14:22:41.694Z,1.07
2019-03-10T14:25:11.409Z,1.20
2019-03-10T14:27:40.957Z,1.13
2019-03-10T14:30:10.896Z,0.90
2019-03-10T14:32:41.038Z,1.30
2019-03-10T14:35:11.043Z,1.50
2019-03-10T14:37:40.826Z,1.60
2019-03-10T14:40:11.095Z,1.20
2019-03-10T14:42:40.823Z,1.87
2019-03-10T14:45:13.772Z,1.30
2019-03-10T14:47:43.430Z,1.70
2019-03-10T14:50:15.441Z,1.60
2019-03-10T14:52:44.810Z,1.50
2019-03-10T14:55:14.688Z,1.43
2019-03-10T14:57:44.378Z,1.40
2019-03-10T15:00:17.360Z,1.10
2019-03-10T15:02:49.423Z,1.40
2019-03-10T15:05:18.875Z,1.00
2019-03-10T15:07:56.409Z,1.20
2019-03-10T15:10:27.504Z,1.27
2019-03-10T15:13:04.741Z,1.30
2019-03-10T15:15:35.992Z,1.37
2019-03-10T15:18:07.016Z,1.10
2019-03-10T15:20:36.380Z,1.30
2019-03-10T15:23:05.660Z,1.13
2019-03-10T15:25:35.855Z,1.20
2019-03-10T15:28:05.259Z,1.60
2019-03-10T15:30:38.095Z,1.50
2019-03-10T15:33:07.464Z,1.50
2019-03-10T15:35:38.572Z,1.60
2019-03-10T15:38:10.553Z,1.67
2019-03-10T15:40:39.874Z,1.30
2019-03-10T15:43:09.726Z,1.00
2019-03-10T15:45:39.335Z,1.30
2019-03-10T15:48:09.825Z,1.10
2019-03-10T15:50:44.687Z,1.30
2019-03-10T15:53:14.543Z,1.10
2019-03-10T15:55:43.825Z,1.30
2019-03-10T15:58:13.471Z,1.40
2019-03-10T16:00:42.871Z,1.60
2019-03-10T16:03:13.235Z,1.50
2019-03-10T16:05:43.982Z,1.80
2019-03-10T16:08:13.313Z,1.70
2019-03-10T16:10:44.868Z,1.40
2019-03-10T16:13:14.155Z,1.67
2019-03-10T16:15:43.460Z,1.70
2019-03-10T16:18:15.429Z,1.70
2019-03-10T16:20:44.765Z,1.60
2019-03-10T16:23:14.271Z,1.63
2019-03-10T16:25:47.278Z,1.43
2019-03-10T16:28:16.635Z,1.70
2019-03-10T16:30:47.748Z,1.53
2019-03-10T16:33:17.025Z,1.73
2019-03-10T16:35:46.295Z,2.00
2019-03-10T16:38:15.611Z,1.57
2019-03-10T16:40:44.922Z,1.60
2019-03-10T16:43:14.224Z,1.70
2019-03-10T16:45:43.556Z,1.80
2019-03-10T16:48:12.891Z,1.83
2019-03-10T16:50:42.756Z,1.50
2019-03-10T16:53:13.138Z,1.70
2019-03-10T16:55:42.787Z,1.87
2019-03-10T16:58:15.544Z,1.60
2019-03-10T17:00:45.784Z,1.40
2019-03-10T17:03:17.872Z,1.17
2019-03-10T17:05:49.300Z,1.37
2019-03-10T17:08:18.684Z,1.07
2019-03-10T17:10:48.104Z,1.00
2019-03-10T17:13:17.745Z,1.00
2019-03-10T17:15:47.664Z,0.90
2019-03-10T17:18:17.199Z,1.10
2019-03-10T17:20:46.478Z,1.10
2019-03-10T17:23:16.180Z,1.10
2019-03-10T17:25:45.561Z,1.10
2019-03-10T17:28:14.847Z,1.20
2019-03-10T17:30:44.229Z,1.20
2019-03-10T17:33:13.597Z,1.40
2019-03-10T17:35:43.128Z,1.60
2019-03-10T17:38:12.522Z,1.13
2019-03-10T17:40:42.263Z,1.40
2019-03-10T17:43:11.671Z,1.77
2019-03-10T17:45:40.977Z,1.20
2019-03-10T17:48:10.243Z,1.67
2019-03-10T17:50:39.902Z,1.60
2019-03-10T17:53:11.476Z,1.57
2019-03-10T17:55:42.534Z,1.43
2019-03-10T17:58:12.007Z,1.57
2019-03-10T18:00:41.326Z,1.70
2019-03-10T18:03:10.665Z,1.57
2019-03-10T18:05:40.390Z,1.70
2019-03-10T18:08:09.726Z,1.70
2019-03-10T18:10:39.082Z,1.70
2019-03-10T18:13:08.344Z,2.00
2019-03-10T18:15:37.683Z,2.00
2019-03-10T18:18:06.975Z,1.50
2019-03-10T18:20:36.295Z,1.50
2019-03-10T18:23:07.182Z,2.00
2019-03-10T18:25:40.127Z,1.60
2019-03-10T18:28:11.891Z,1.70
2019-03-10T18:30:41.303Z,1.57
2019-03-10T18:33:10.857Z,2.10
2019-03-10T18:35:40.247Z,1.70
2019-03-10T18:38:09.933Z,1.80
2019-03-10T18:40:42.010Z,1.70
2019-03-10T18:43:11.920Z,1.80
2019-03-10T18:45:41.604Z,1.70
2019-03-10T18:48:10.959Z,1.70
2019-03-10T18:50:43.711Z,1.70
2019-03-10T18:53:13.090Z,1.70
2019-03-10T18:55:42.449Z,1.53
2019-03-10T18:58:11.809Z,2.00
2019-03-10T19:00:41.548Z,1.70
2019-03-10T19:03:11.291Z,1.83
2019-03-10T19:05:40.774Z,1.43
2019-03-10T19:08:10.469Z,2.33
2019-03-10T19:10:42.729Z,1.70
2019-03-10T19:13:12.481Z,1.40
2019-03-10T19:15:41.766Z,1.73
2019-03-10T19:18:11.056Z,2.00
2019-03-10T19:20:43.206Z,2.30
2019-03-10T19:23:14.313Z,1.70
2019-03-10T19:25:46.413Z,1.97
2019-03-10T19:28:15.726Z,2.17
2019-03-10T19:30:45.122Z,2.30
2019-03-10T19:33:14.462Z,2.20
2019-03-10T19:35:43.866Z,2.00
2019-03-10T19:38:13.966Z,2.50
2019-03-10T19:40:43.273Z,2.00
2019-03-10T19:43:12.907Z,1.80
2019-03-10T19:45:42.195Z,2.40
2019-03-10T19:48:11.545Z,2.23
2019-03-10T19:50:41.131Z,2.17
2019-03-10T19:53:10.806Z,1.80
2019-03-10T19:55:40.155Z,2.03
2019-03-10T19:58:09.835Z,2.00
2019-03-10T20:00:39.575Z,2.17
2019-03-10T20:03:09.737Z,2.03
2019-03-10T20:05:39.220Z,2.33
2019-03-10T20:08:08.482Z,2.77
2019-03-10T20:10:38.105Z,2.27
2019-03-10T20:13:07.728Z,1.90
2019-03-10T20:15:37.184Z,1.93
2019-03-10T20:18:06.754Z,2.07
2019-03-10T20:20:36.173Z,2.43
2019-03-10T20:23:05.504Z,2.30
2019-03-10T20:25:34.772Z,2.10
2019-03-10T20:28:04.400Z,2.37
2019-03-10T20:30:33.831Z,2.17
2019-03-10T20:33:03.103Z,2.33
2019-03-10T20:35:32.402Z,1.87
2019-03-10T20:38:01.644Z,2.43
2019-03-10T20:40:31.021Z,2.93
2019-03-10T20:43:01.045Z,2.17
2019-03-10T20:45:30.320Z,2.20
2019-03-10T20:47:59.882Z,1.90
2019-03-10T20:50:29.259Z,2.00
2019-03-10T20:52:59.133Z,2.07
2019-03-10T20:55:28.529Z,2.10
2019-03-10T20:57:57.886Z,1.90
2019-03-10T21:00:27.868Z,2.50
2019-03-10T21:02:57.152Z,2.10
2019-03-10T21:05:26.440Z,2.30
2019-03-10T21:07:55.735Z,2.17
2019-03-10T21:10:24.955Z,2.60
2019-03-10T21:12:54.568Z,2.00
2019-03-10T21:15:26.324Z,2.33
2019-03-10T21:17:55.504Z,2.70
2019-03-10T21:20:25.104Z,2.13
2019-03-10T21:22:54.750Z,2.67
2019-03-10T21:25:24.382Z,2.50
2019-03-10T21:27:53.699Z,2.40
2019-03-10T21:30:24.096Z,2.57
2019-03-10T21:32:53.389Z,2.70
2019-03-10T21:35:22.972Z,2.53
2019-03-10T21:37:52.461Z,2.63
2019-03-10T21:40:22.973Z,2.37
2019-03-10T21:42:52.693Z,2.43
2019-03-10T21:45:22.163Z,2.87
2019-03-10T21:47:51.853Z,2.63
2019-03-10T21:50:21.454Z,2.60
2019-03-10T21:52:50.781Z,3.23
2019-03-10T21:55:20.128Z,2.30
2019-03-10T21:57:50.078Z,2.90
2019-03-10T22:00:19.447Z,3.23
2019-03-10T22:02:48.842Z,2.30
2019-03-10T22:05:18.233Z,2.50
2019-03-10T22:07:47.536Z,2.07
2019-03-10T22:10:26.114Z,2.70
2019-03-10T22:12:48.502Z,2.23
2019-03-10T22:15:18.442Z,1.77
2019-03-10T22:17:47.808Z,2.50
2019-03-10T22:20:17.078Z,2.63
2019-03-10T22:22:50.324Z,2.53
2019-03-10T22:25:18.071Z,2.50
2019-03-10T22:27:47.394Z,2.73
2019-03-10T22:30:17.230Z,2.70
2019-03-10T22:32:46.430Z,2.57
2019-03-10T22:35:15.924Z,2.43
2019-03-10T22:37:45.283Z,2.47
2019-03-10T22:40:15.075Z,3.07
2019-03-10T22:42:45.058Z,2.67
2019-03-10T22:45:14.779Z,2.90
2019-03-10T22:47:44.318Z,2.50
2019-03-10T22:50:13.892Z,2.30
2019-03-10T22:52:43.371Z,2.70
2019-03-10T22:55:13.252Z,2.60
2019-03-10T22:57:42.712Z,2.67
2019-03-10T23:00:14.459Z,2.10
2019-03-10T23:02:44.374Z,2.30
2019-03-10T23:05:13.944Z,2.30
2019-03-10T23:07:43.425Z,2.70
2019-03-10T23:10:13.544Z,2.00
2019-03-10T23:12:42.924Z,2.10
2019-03-10T23:15:13.114Z,2.23
2019-03-10T23:17:42.693Z,1.60
2019-03-10T23:20:13.373Z,1.77
2019-03-10T23:22:42.642Z,2.20
2019-03-10T23:25:12.206Z,1.90
2019-03-10T23:27:41.489Z,2.13
2019-03-10T23:30:12.781Z,2.43
2019-03-10T23:32:42.026Z,2.20
2019-03-10T23:35:11.841Z,2.20
2019-03-10T23:37:41.017Z,2.80
2019-03-10T23:40:11.155Z,2.03
2019-03-10T23:42:40.675Z,2.37
2019-03-10T23:45:10.808Z,2.90
2019-03-10T23:47:40.136Z,3.07
2019-03-10T23:50:10.415Z,3.13
2019-03-10T23:52:40.063Z,3.00
2019-03-10T23:55:09.653Z,3.23
2019-03-10T23:57:38.980Z,2.80
